If you wish to contribute or participate in the discussions about articles you are invited to join SKYbrary as a registered user

 Actions

Shaktoolik Airport

From SKYbrary Wiki

PFSH
Airport
ICAO: PFSH – IATA: SKK
Summary
Name Shaktoolik Airport
Region North America
Territory
Location , Alaska
Serving Shaktoolik
Elevation 7.315 m
24 ft
24 ft7.315 m
Type small airport
Coordinates 64° 22' 16.00" N, 161° 13' 26.00" W
Runways
Designator Length Width Surface ROPS
14/32 1220 m4,002.625 ft
23 m75.459 ft
GRVL-G /


METAR
Observation PFSH 232356Z AUTO 21012KT 9SM -SN BKN012 BKN023 OVC040 M02/M04 A2985 RMK AO2 UPB07E17SNE07B17 SLP107 P0000 60001 T10171044 10011 21022 51020 FZRANO
Station SHAKTOOLIK
Date/Time 23 April 2019 23:56:00
Wind direction 210°
Wind speed 12 kts
Lowest cloud amount broken clouds
Temperature
Dew point
Humidity 81%
QNH hPa
Weather condition light snow